Time,TemperatureF,DewpointF,PressureIn,WindDirection,WindDirectionDegrees,WindSpeedMPH,WindSpeedGustMPH,Humidity,HourlyPrecipIn,Conditions,Clouds,dailyrainin,SoftwareType,DateUTC
2013-03-15 00:01:00,63.0,28.0,30.11,NNE,14,5.0,8.0,26,0.00,,,0.00,,2013-03-15 07:01:00,
2013-03-15 00:11:00,63.0,28.0,30.11,NNE,14,5.0,8.0,26,0.00,,,0.00,,2013-03-15 07:11:00,
2013-03-15 00:21:00,63.0,26.0,30.11,North,10,4.0,6.0,24,0.00,,,0.00,,2013-03-15 07:21:00,
2013-03-15 00:31:00,61.0,25.0,30.11,NNE,13,3.0,5.0,25,0.00,,,0.00,,2013-03-15 07:31:00,
2013-03-15 00:42:00,61.0,25.0,30.11,NNE,13,3.0,5.0,25,0.00,,,0.00,,2013-03-15 07:42:00,
2013-03-15 00:52:00,61.0,26.0,30.11,North,5,4.0,8.0,26,0.00,,,0.00,,2013-03-15 07:52:00,
2013-03-15 01:01:00,61.0,25.0,30.10,NNW,342,5.0,7.0,25,0.00,,,0.00,,2013-03-15 08:01:00,
2013-03-15 01:11:00,61.0,25.0,30.10,NNW,342,5.0,7.0,25,0.00,,,0.00,,2013-03-15 08:11:00,
2013-03-15 01:22:00,61.0,26.0,30.10,North,355,7.0,8.0,26,0.00,,,0.00,,2013-03-15 08:22:00,
2013-03-15 01:31:00,60.0,28.0,30.09,North,351,7.0,9.0,30,0.00,,,0.00,,2013-03-15 08:31:00,
2013-03-15 01:41:00,60.0,28.0,30.09,North,351,7.0,9.0,30,0.00,,,0.00,,2013-03-15 08:41:00,
2013-03-15 01:52:00,61.0,28.0,30.09,North,349,6.0,9.0,28,0.00,,,0.00,,2013-03-15 08:52:00,
2013-03-15 02:01:00,62.0,28.0,30.09,North,10,5.0,8.0,27,0.00,,,0.00,,2013-03-15 09:01:00,
2013-03-15 02:11:00,62.0,28.0,30.09,North,10,5.0,8.0,27,0.00,,,0.00,,2013-03-15 09:11:00,
2013-03-15 02:21:00,61.0,27.0,30.08,North,11,7.0,10.0,27,0.00,,,0.00,,2013-03-15 09:21:00,
2013-03-15 02:32:00,60.0,26.0,30.08,North,5,5.0,9.0,27,0.00,,,0.00,,2013-03-15 09:32:00,
2013-03-15 02:42:00,60.0,26.0,30.08,North,5,5.0,9.0,27,0.00,,,0.00,,2013-03-15 09:42:00,
2013-03-15 02:53:00,59.0,26.0,30.07,NNW,346,4.0,6.0,28,0.00,,,0.00,,2013-03-15 09:53:00,
2013-03-15 03:02:00,57.0,25.0,30.06,NNW,347,3.0,8.0,29,0.00,,,0.00,,2013-03-15 10:02:00,
2013-03-15 03:12:00,57.0,25.0,30.06,NNW,347,3.0,8.0,29,0.00,,,0.00,,2013-03-15 10:12:00,
2013-03-15 03:22:00,60.0,24.0,30.06,North,355,4.0,6.0,25,0.00,,,0.00,,2013-03-15 10:22:00,
2013-03-15 03:32:00,56.0,42.0,30.06,North,355,15.0,20.0,59,0.00,,,0.00,,2013-03-15 10:32:00,
2013-03-15 03:51:00,57.0,38.0,30.05,NNE,16,8.0,19.0,49,0.00,,,0.00,,2013-03-15 10:51:00,
2013-03-15 04:02:00,58.0,36.0,30.05,North,5,7.0,14.0,44,0.00,,,0.00,,2013-03-15 11:02:00,
2013-03-15 04:11:00,58.0,36.0,30.05,North,5,7.0,14.0,44,0.00,,,0.00,,2013-03-15 11:11:00,
2013-03-15 04:22:00,60.0,28.0,30.05,North,349,5.0,8.0,29,0.00,,,0.00,,2013-03-15 11:22:00,
2013-03-15 04:31:00,56.0,42.0,30.04,North,351,14.0,18.0,60,0.00,,,0.00,,2013-03-15 11:31:00,
2013-03-15 04:51:00,60.0,30.0,30.03,NNE,14,6.0,10.0,32,0.00,,,0.00,,2013-03-15 11:51:00,
2013-03-15 05:01:00,62.0,25.0,30.03,North,9,5.0,7.0,24,0.00,,,0.00,,2013-03-15 12:01:00,
2013-03-15 05:11:00,59.0,37.0,30.03,NNW,346,13.0,16.0,43,0.00,,,0.00,,2013-03-15 12:11:00,
2013-03-15 05:21:00,59.0,37.0,30.03,NNW,346,13.0,16.0,43,0.00,,,0.00,,2013-03-15 12:21:00,
2013-03-15 05:31:00,57.0,36.0,30.03,NNE,15,7.0,20.0,45,0.00,,,0.00,,2013-03-15 12:31:00,
2013-03-15 05:42:00,57.0,36.0,30.03,NNE,15,7.0,20.0,45,0.00,,,0.00,,2013-03-15 12:42:00,
2013-03-15 05:52:00,57.0,36.0,30.03,North,350,9.0,17.0,45,0.00,,,0.00,,2013-03-15 12:52:00,
2013-03-15 06:01:00,59.0,35.0,30.03,NNE,17,10.0,14.0,41,0.00,,,0.00,,2013-03-15 13:01:00,
2013-03-15 06:11:00,59.0,35.0,30.03,NNE,17,10.0,14.0,41,0.00,,,0.00,,2013-03-15 13:11:00,
2013-03-15 06:22:00,60.0,28.0,30.03,North,355,8.0,13.0,30,0.00,,,0.00,,2013-03-15 13:22:00,
2013-03-15 06:31:00,60.0,25.0,30.04,NNW,338,7.0,13.0,26,0.00,,,0.00,,2013-03-15 13:31:00,
2013-03-15 06:41:00,60.0,25.0,30.04,NNW,338,7.0,13.0,26,0.00,,,0.00,,2013-03-15 13:41:00,
2013-03-15 06:52:00,63.0,24.0,30.03,NNW,338,6.0,13.0,22,0.00,,,0.00,,2013-03-15 13:52:00,
2013-03-15 07:01:00,61.0,23.0,30.03,NNW,337,5.0,10.0,23,0.00,,,0.00,,2013-03-15 14:01:00,
2013-03-15 07:22:00,62.0,24.0,30.04,NNW,346,7.0,11.0,23,0.00,,,0.00,,2013-03-15 14:22:00,
2013-03-15 07:32:00,62.0,24.0,30.03,NNW,342,8.0,14.0,23,0.00,,,0.00,,2013-03-15 14:32:00,
2013-03-15 07:41:00,62.0,24.0,30.03,NNW,342,8.0,14.0,23,0.00,,,0.00,,2013-03-15 14:41:00,
2013-03-15 07:52:00,63.0,25.0,30.03,North,360,9.0,13.0,23,0.00,,,0.00,,2013-03-15 14:52:00,
2013-03-15 08:01:00,64.0,22.0,30.04,North,355,8.0,17.0,20,0.00,,,0.00,,2013-03-15 15:01:00,
2013-03-15 08:21:00,63.0,28.0,30.04,NNE,15,9.0,13.0,26,0.00,,,0.00,,2013-03-15 15:21:00,
2013-03-15 08:32:00,62.0,28.0,30.05,North,5,6.0,13.0,27,0.00,,,0.00,,2013-03-15 15:32:00,
2013-03-15 08:42:00,64.0,24.0,30.05,North,5,11.0,16.0,22,0.00,,,0.00,,2013-03-15 15:42:00,
2013-03-15 08:52:00,64.0,24.0,30.05,North,5,11.0,16.0,22,0.00,,,0.00,,2013-03-15 15:52:00,
2013-03-15 09:02:00,65.0,25.0,30.05,North,5,7.0,15.0,22,0.00,,,0.00,,2013-03-15 16:02:00,
2013-03-15 09:12:00,64.0,33.0,30.06,North,5,11.0,15.0,31,0.00,,,0.00,,2013-03-15 16:12:00,
2013-03-15 09:22:00,64.0,33.0,30.06,North,5,11.0,15.0,31,0.00,,,0.00,,2013-03-15 16:22:00,
2013-03-15 09:32:00,65.0,30.0,30.06,NNW,342,7.0,14.0,27,0.00,,,0.00,,2013-03-15 16:32:00,
2013-03-15 09:41:00,65.0,30.0,30.06,NNW,342,7.0,14.0,27,0.00,,,0.00,,2013-03-15 16:41:00,
2013-03-15 09:52:00,65.0,28.0,30.06,North,5,7.0,14.0,25,0.00,,,0.00,,2013-03-15 16:52:00,
2013-03-15 10:01:00,64.0,37.0,30.06,North,350,9.0,16.0,37,0.00,,,0.00,,2013-03-15 17:01:00,
2013-03-15 10:11:00,64.0,37.0,30.06,North,350,9.0,16.0,37,0.00,,,0.00,,2013-03-15 17:11:00,
2013-03-15 10:22:00,65.0,37.0,30.07,NNW,348,8.0,15.0,36,0.00,,,0.00,,2013-03-15 17:22:00,
2013-03-15 10:32:00,67.0,34.0,30.07,NNW,346,7.0,14.0,29,0.00,,,0.00,,2013-03-15 17:32:00,
2013-03-15 10:41:00,67.0,34.0,30.07,NNW,346,7.0,14.0,29,0.00,,,0.00,,2013-03-15 17:41:00,
2013-03-15 10:52:00,68.0,29.0,30.07,North,360,6.0,12.0,23,0.00,,,0.00,,2013-03-15 17:52:00,
2013-03-15 11:02:00,69.0,27.0,30.06,NNW,341,6.0,12.0,21,0.00,,,0.00,,2013-03-15 18:02:00,
2013-03-15 11:21:00,69.0,26.0,30.06,NNW,331,2.0,11.0,20,0.00,,,0.00,,2013-03-15 18:21:00,
2013-03-15 11:31:00,70.0,22.0,30.06,ENE,65,4.0,11.0,16,0.00,,,0.00,,2013-03-15 18:31:00,
2013-03-15 11:52:00,72.0,25.0,30.06,North,350,3.0,10.0,17,0.00,,,0.00,,2013-03-15 18:52:00,
2013-03-15 12:01:00,72.0,18.0,30.05,WSW,252,2.0,10.0,13,0.00,,,0.00,,2013-03-15 19:01:00,
2013-03-15 12:22:00,73.0,23.0,30.04,NNW,347,1.0,8.0,15,0.00,,,0.00,,2013-03-15 19:22:00,
2013-03-15 12:31:00,74.0,25.0,30.03,North,355,5.0,8.0,16,0.00,,,0.00,,2013-03-15 19:31:00,
2013-03-15 12:52:00,74.0,34.0,30.03,NNE,13,5.0,11.0,23,0.00,,,0.00,,2013-03-15 19:52:00,
2013-03-15 13:02:00,72.0,38.0,30.03,NNW,348,7.0,13.0,29,0.00,,,0.00,,2013-03-15 20:02:00,
2013-03-15 13:11:00,72.0,38.0,30.03,NNW,348,7.0,13.0,29,0.00,,,0.00,,2013-03-15 20:11:00,
2013-03-15 13:22:00,71.0,40.0,30.03,WNW,295,8.0,14.0,32,0.00,,,0.00,,2013-03-15 20:22:00,
2013-03-15 13:31:00,71.0,42.0,30.02,NE,40,7.0,12.0,35,0.00,,,0.00,,2013-03-15 20:31:00,
2013-03-15 13:41:00,71.0,42.0,30.02,NE,40,7.0,12.0,35,0.00,,,0.00,,2013-03-15 20:41:00,
2013-03-15 13:52:00,71.0,42.0,30.02,North,5,6.0,13.0,35,0.00,,,0.00,,2013-03-15 20:52:00,
2013-03-15 14:01:00,69.0,47.0,30.02,NNW,342,8.0,11.0,46,0.00,,,0.00,,2013-03-15 21:01:00,
2013-03-15 14:11:00,69.0,47.0,30.02,NNW,342,8.0,11.0,46,0.00,,,0.00,,2013-03-15 21:11:00,
2013-03-15 14:21:00,68.0,48.0,30.01,ENE,57,9.0,14.0,49,0.00,,,0.00,,2013-03-15 21:21:00,
2013-03-15 14:32:00,66.0,50.0,30.01,North,11,14.0,18.0,56,0.00,,,0.00,,2013-03-15 21:32:00,
2013-03-15 14:52:00,66.0,49.0,30.00,North,355,10.0,17.0,54,0.00,,,0.00,,2013-03-15 21:52:00,
2013-03-15 15:02:00,64.0,49.0,30.01,NNW,330,13.0,20.0,58,0.00,,,0.00,,2013-03-15 22:02:00,
2013-03-15 15:22:00,65.0,47.0,30.00,North,355,15.0,20.0,53,0.00,,,0.00,,2013-03-15 22:22:00,
2013-03-15 15:32:00,66.0,46.0,30.00,North,355,10.0,21.0,48,0.00,,,0.00,,2013-03-15 22:32:00,
2013-03-15 15:41:00,66.0,46.0,30.00,North,355,10.0,21.0,48,0.00,,,0.00,,2013-03-15 22:41:00,
2013-03-15 15:52:00,66.0,40.0,30.00,North,360,13.0,19.0,39,0.00,,,0.00,,2013-03-15 22:52:00,
2013-03-15 16:02:00,66.0,36.0,29.99,NW,305,11.0,19.0,33,0.00,,,0.00,,2013-03-15 23:02:00,
2013-03-15 16:11:00,66.0,36.0,29.99,NW,305,11.0,19.0,33,0.00,,,0.00,,2013-03-15 23:11:00,
2013-03-15 16:21:00,66.0,39.0,29.99,North,5,10.0,17.0,37,0.00,,,0.00,,2013-03-15 23:21:00,
2013-03-15 16:31:00,65.0,37.0,29.98,North,5,14.0,21.0,35,0.00,,,0.00,,2013-03-15 23:31:00,
2013-03-15 16:41:00,65.0,37.0,29.98,North,5,14.0,21.0,35,0.00,,,0.00,,2013-03-15 23:41:00,
2013-03-15 16:53:00,65.0,41.0,29.98,NW,323,13.0,20.0,41,0.00,,,0.00,,2013-03-15 23:53:00,
2013-03-15 17:02:00,64.0,41.0,29.99,North,9,14.0,20.0,43,0.00,,,0.00,,2013-03-16 00:02:00,
2013-03-15 17:11:00,64.0,41.0,29.99,North,9,14.0,20.0,43,0.00,,,0.00,,2013-03-16 00:11:00,
2013-03-15 17:22:00,61.0,43.0,29.99,North,5,11.0,19.0,52,0.00,,,0.00,,2013-03-16 00:22:00,
2013-03-15 17:31:00,61.0,43.0,29.99,NNW,332,13.0,22.0,52,0.00,,,0.00,,2013-03-16 00:31:00,
2013-03-15 17:42:00,61.0,43.0,29.99,NNW,332,13.0,22.0,52,0.00,,,0.00,,2013-03-16 00:42:00,
2013-03-15 17:52:00,61.0,42.0,29.98,NW,325,12.0,22.0,49,0.00,,,0.00,,2013-03-16 00:52:00,
2013-03-15 18:01:00,61.0,40.0,29.98,North,355,14.0,22.0,45,0.00,,,0.00,,2013-03-16 01:01:00,
2013-03-15 18:21:00,61.0,36.0,29.98,North,350,17.0,24.0,40,0.00,,,0.00,,2013-03-16 01:21:00,
2013-03-15 18:31:00,59.0,37.0,29.98,North,11,14.0,28.0,44,0.00,,,0.00,,2013-03-16 01:31:00,
2013-03-15 18:41:00,59.0,37.0,29.98,North,11,14.0,28.0,44,0.00,,,0.00,,2013-03-16 01:41:00,
2013-03-15 18:52:00,60.0,34.0,29.98,NNW,348,17.0,27.0,38,0.00,,,0.00,,2013-03-16 01:52:00,
2013-03-15 19:01:00,58.0,36.0,29.98,NNW,333,19.0,29.0,44,0.00,,,0.00,,2013-03-16 02:01:00,
2013-03-15 19:22:00,57.0,38.0,29.98,North,355,18.0,29.0,48,0.00,,,0.00,,2013-03-16 02:22:00,
2013-03-15 19:32:00,57.0,36.0,29.98,North,355,21.0,30.0,46,0.00,,,0.00,,2013-03-16 02:32:00,
2013-03-15 19:42:00,57.0,36.0,29.98,North,355,21.0,30.0,46,0.00,,,0.00,,2013-03-16 02:42:00,
2013-03-15 19:52:00,57.0,36.0,29.98,North,355,19.0,32.0,46,0.00,,,0.00,,2013-03-16 02:52:00,
2013-03-15 20:01:00,57.0,36.0,29.98,NNW,341,21.0,30.0,46,0.00,,,0.00,,2013-03-16 03:01:00,
2013-03-15 20:11:00,57.0,36.0,29.98,NNW,341,21.0,30.0,46,0.00,,,0.00,,2013-03-16 03:11:00,
2013-03-15 20:21:00,57.0,39.0,29.99,NNW,335,21.0,35.0,50,0.00,,,0.00,,2013-03-16 03:21:00,
2013-03-15 20:32:00,56.0,39.0,30.00,North,9,18.0,28.0,52,0.00,,,0.00,,2013-03-16 03:32:00,
2013-03-15 20:42:00,56.0,39.0,30.00,North,9,18.0,28.0,52,0.00,,,0.00,,2013-03-16 03:42:00,
2013-03-15 20:53:00,56.0,37.0,30.00,North,5,18.0,29.0,49,0.00,,,0.00,,2013-03-16 03:53:00,
2013-03-15 21:02:00,56.0,36.0,30.00,North,5,21.0,33.0,46,0.00,,,0.00,,2013-03-16 04:02:00,
2013-03-15 21:12:00,56.0,36.0,30.00,North,5,21.0,33.0,46,0.00,,,0.00,,2013-03-16 04:12:00,
2013-03-15 21:22:00,56.0,35.0,29.99,NNW,347,15.0,33.0,45,0.00,,,0.00,,2013-03-16 04:22:00,
2013-03-15 21:32:00,57.0,34.0,30.00,North,5,17.0,29.0,41,0.00,,,0.00,,2013-03-16 04:32:00,
2013-03-15 21:42:00,57.0,34.0,30.00,North,5,17.0,29.0,41,0.00,,,0.00,,2013-03-16 04:42:00,
2013-03-15 21:52:00,56.0,35.0,30.00,NNW,348,11.0,25.0,45,0.00,,,0.00,,2013-03-16 04:52:00,
2013-03-15 22:02:00,56.0,35.0,30.00,NNW,344,14.0,27.0,45,0.00,,,0.00,,2013-03-16 05:02:00,
2013-03-15 22:12:00,56.0,35.0,30.00,NNW,344,14.0,27.0,45,0.00,,,0.00,,2013-03-16 05:12:00,
2013-03-15 22:21:00,55.0,36.0,30.00,North,5,15.0,33.0,48,0.00,,,0.00,,2013-03-16 05:21:00,
2013-03-15 22:31:00,55.0,38.0,29.99,WNW,300,10.0,26.0,53,0.00,,,0.00,,2013-03-16 05:31:00,
2013-03-15 22:42:00,55.0,38.0,29.99,WNW,300,10.0,26.0,53,0.00,,,0.00,,2013-03-16 05:42:00,
2013-03-15 22:52:00,54.0,40.0,29.99,North,9,16.0,32.0,60,0.00,,,0.00,,2013-03-16 05:52:00,
2013-03-15 23:02:00,54.0,41.0,29.98,NNE,17,19.0,38.0,62,0.00,,,0.00,,2013-03-16 06:02:00,
2013-03-15 23:11:00,54.0,41.0,29.98,NNE,17,19.0,38.0,62,0.00,,,0.00,,2013-03-16 06:11:00,
2013-03-15 23:21:00,54.0,40.0,29.96,NNW,346,24.0,42.0,60,0.00,,,0.00,,2013-03-16 06:21:00,
2013-03-15 23:32:00,54.0,41.0,29.96,NNE,24,22.0,39.0,61,0.00,,,0.00,,2013-03-16 06:32:00,
2013-03-15 23:41:00,54.0,41.0,29.96,NNE,24,22.0,39.0,61,0.00,,,0.00,,2013-03-16 06:41:00,
2013-03-15 23:52:00,54.0,41.0,29.96,NNE,24,22.0,39.0,61,0.00,,,0.00,,2013-03-16 06:52:00,